Time;durP1;ratioP1;P1;durP2;ratioP2;P2;SDS_P1;SDS_P2;PMS_P1;PMS_P2;Temp;Humidity;BMP_temperature;BMP_pressure;BME280_temperature;BME280_humidity;BME280_pressure;Samples;Min_cycle;Max_cycle;Signal;HPM_P1;HPM_P2
2021/04/15 00:01:44;;;;;;;;;;;;;;;4.02;58.38;101769.42;1720965;82;20305;-73
2021/04/15 00:04:29;;;;;;;;;;;;;;;4.04;58.41;101763.53;1753220;81;20479;-73
2021/04/15 00:07:13;;;;;;;;;;;;;;;4.04;58.47;101763.94;1756788;81;20315;-73
2021/04/15 00:09:58;;;;;;;;;;;;;;;4.02;58.53;101765.59;1745860;81;20284;-73
2021/04/15 00:12:42;;;;;;;;;;;;;;;4.01;58.60;101760.01;1739106;81;20309;-73
2021/04/15 00:15:27;;;;;;;;;;;;;;;4.00;58.68;101761.70;1746419;81;20673;-73
2021/04/15 00:18:12;;;;;;;;;;;;;;;4.01;58.77;101754.89;1744917;81;20579;-73
2021/04/15 00:20:57;;;;;;;;;;;;;;;3.98;58.80;101757.82;1742859;81;20476;-73
2021/04/15 00:23:42;;;;;;;;;;;;;;;3.98;58.83;101755.27;1738792;81;20280;-73
2021/04/15 00:26:28;;;;;;;;;;;;;;;3.98;58.91;101749.27;1747831;81;20695;-73
2021/04/15 00:29:12;;;;;;;;;;;;;;;3.96;58.92;101754.34;1748704;81;20264;-73
2021/04/15 00:31:57;;;;;;;;;;;;;;;3.93;58.98;101745.30;1736932;81;20180;-73
2021/04/15 00:34:41;;;;;;;;;;;;;;;3.92;59.06;101743.98;1749427;81;20244;-73
2021/04/15 00:37:25;;;;;;;;;;;;;;;3.90;59.14;101742.66;1748728;81;20582;-73
2021/04/15 00:40:11;;;;;;;;;;;;;;;3.90;59.19;101739.23;1736030;81;20251;-73
2021/04/15 00:42:56;;;;;;;;;;;;;;;3.90;59.23;101741.38;1737063;81;20503;-73
2021/04/15 00:45:45;;;;;;;;;;;;;;;3.88;59.30;101743.02;1738280;81;20255;-73
2021/04/15 00:48:33;;;;;;;;;;;;;;;3.88;59.35;101737.03;1738010;81;20252;-73
2021/04/15 00:51:39;;;;;;;;;;;;;;;3.87;59.41;101736.17;1755166;81;20252;-73
2021/04/15 00:54:39;;;;;;;;;;;;;;;3.88;59.43;101737.91;1736614;81;20793;-73
2021/04/15 00:57:30;;;;;;;;;;;;;;;3.87;59.49;101732.33;1743101;81;20256;-73
2021/04/15 01:00:16;;;;;;;;;;;;;;;3.85;59.56;101733.11;1739913;81;20571;-73
2021/04/15 01:03:01;;;;;;;;;;;;;;;3.86;59.65;101729.31;1742862;81;20271;-73
2021/04/15 01:05:47;;;;;;;;;;;;;;;3.84;59.63;101728.41;1733093;81;20326;-73
2021/04/15 01:08:32;;;;;;;;;;;;;;;3.84;59.69;101729.68;1736273;81;20295;-73
2021/04/15 01:11:47;;;;;;;;;;;;;;;3.81;59.73;101730.88;1746849;81;20291;-73
2021/04/15 01:14:52;;;;;;;;;;;;;;;3.79;59.76;101726.53;1740698;81;20615;-73
2021/04/15 01:17:56;;;;;;;;;;;;;;;3.76;59.83;101732.83;1744953;80;20304;-73
2021/04/15 01:21:17;;;;;;;;;;;;;;;3.74;59.91;101725.53;1751097;80;21026;-73
2021/04/15 01:24:08;;;;;;;;;;;;;;;3.73;59.98;101724.66;1751253;81;20249;-73
2021/04/15 01:27:05;;;;;;;;;;;;;;;3.73;59.99;101719.95;1740553;81;20441;-73
2021/04/15 01:29:59;;;;;;;;;;;;;;;3.69;60.10;101715.57;1743863;80;20143;-73
2021/04/15 01:33:11;;;;;;;;;;;;;;;3.71;60.19;101717.77;1747543;80;20618;-73
2021/04/15 01:36:00;;;;;;;;;;;;;;;3.72;60.19;101719.50;1740581;81;20286;-73
2021/04/15 01:38:48;;;;;;;;;;;;;;;3.73;60.31;101708.44;1744846;81;20292;-73
2021/04/15 01:41:36;;;;;;;;;;;;;;;3.71;60.14;101709.67;1734068;80;20658;-73
2021/04/15 01:44:37;;;;;;;;;;;;;;;3.68;60.29;101717.26;1753384;81;20268;-73
2021/04/15 01:47:31;;;;;;;;;;;;;;;3.68;60.38;101715.11;1739773;80;20318;-73
2021/04/15 01:50:19;;;;;;;;;;;;;;;3.68;60.42;101713.42;1755005;80;20324;-73
2021/04/15 01:53:10;;;;;;;;;;;;;;;3.68;60.52;101710.87;1740608;81;20626;-73
2021/04/15 01:56:04;;;;;;;;;;;;;;;3.65;60.49;101706.94;1732022;80;20289;-73
2021/04/15 01:59:00;;;;;;;;;;;;;;;3.63;60.60;101713.31;1751901;81;20296;-73
2021/04/15 02:01:48;;;;;;;;;;;;;;;3.62;60.72;101710.30;1746613;81;20300;-73
2021/04/15 02:04:36;;;;;;;;;;;;;;;3.61;60.72;101711.54;1739737;80;20291;-73
2021/04/15 02:07:23;;;;;;;;;;;;;;;3.58;60.82;101714.00;1747489;80;20209;-73
2021/04/15 02:10:10;;;;;;;;;;;;;;;3.54;60.86;101705.78;1742191;81;20295;-73
2021/04/15 02:12:57;;;;;;;;;;;;;;;3.51;60.96;101709.11;1749339;80;21389;-73
2021/04/15 02:15:48;;;;;;;;;;;;;;;3.52;61.05;101709.57;1745345;81;20308;-73
2021/04/15 02:18:41;;;;;;;;;;;;;;;3.50;61.09;101704.82;1750530;81;20579;-73
2021/04/15 02:21:56;;;;;;;;;;;;;;;3.48;61.13;101706.88;1736217;80;20595;-73
2021/04/15 02:25:05;;;;;;;;;;;;;;;3.44;61.17;101702.08;1733024;81;20304;-73
2021/04/15 02:27:56;;;;;;;;;;;;;;;3.44;61.35;101697.38;1742956;81;21047;-73
2021/04/15 02:30:47;;;;;;;;;;;;;;;3.48;61.45;101694.09;1738308;81;20300;-73
2021/04/15 02:33:44;;;;;;;;;;;;;;;3.52;61.35;101692.08;1747977;80;20559;-73
2021/04/15 02:36:35;;;;;;;;;;;;;;;3.54;61.49;101682.36;1745083;81;20256;-73
2021/04/15 02:39:23;;;;;;;;;;;;;;;3.57;61.54;101682.45;1731372;81;20278;-73
2021/04/15 02:42:11;;;;;;;;;;;;;;;3.59;61.51;101681.22;1743319;81;20177;-73
2021/04/15 02:45:01;;;;;;;;;;;;;;;3.60;61.54;101686.78;1735115;81;20249;-73
2021/04/15 02:47:52;;;;;;;;;;;;;;;3.61;61.50;101685.97;1730879;81;20256;-73
2021/04/15 02:50:37;;;;;;;;;;;;;;;3.59;61.56;101684.64;1742380;81;20545;-73
2021/04/15 02:53:25;;;;;;;;;;;;;;;3.57;61.59;101686.69;1735934;81;20249;-73
2021/04/15 02:56:21;;;;;;;;;;;;;;;3.57;61.73;101679.02;1745333;81;20276;-73
2021/04/15 02:59:09;;;;;;;;;;;;;;;3.55;61.75;101684.09;1736491;81;20187;-73
2021/04/15 03:01:57;;;;;;;;;;;;;;;3.56;61.83;101684.55;1742887;81;20441;-74
2021/04/15 03:04:45;;;;;;;;;;;;;;;3.56;61.95;101681.99;1745072;81;20303;-74
2021/04/15 03:07:31;;;;;;;;;;;;;;;3.56;61.96;101684.55;1739873;81;20260;-73
2021/04/15 03:10:19;;;;;;;;;;;;;;;3.55;62.04;101680.66;1741422;81;20535;-73
2021/04/15 03:13:16;;;;;;;;;;;;;;;3.53;62.17;101685.73;1736257;81;20302;-73
2021/04/15 03:16:05;;;;;;;;;;;;;;;3.54;62.24;101678.94;1738738;80;20574;-73
2021/04/15 03:19:02;;;;;;;;;;;;;;;3.52;62.29;101678.89;1738042;80;20318;-73
2021/04/15 03:22:02;;;;;;;;;;;;;;;3.53;62.27;101687.02;1745443;81;20308;-73
2021/04/15 03:24:50;;;;;;;;;;;;;;;3.53;62.36;101681.03;1741614;81;20275;-73
2021/04/15 03:27:47;;;;;;;;;;;;;;;3.51;62.36;101683.55;1760922;80;20286;-73
2021/04/15 03:30:46;;;;;;;;;;;;;;;3.50;62.39;101683.50;1745455;80;20562;-73
2021/04/15 03:33:44;;;;;;;;;;;;;;;3.47;62.38;101681.72;1727298;81;20366;-73
2021/04/15 03:36:38;;;;;;;;;;;;;;;3.45;62.29;101683.77;1762830;80;20298;-73
2021/04/15 03:39:32;;;;;;;;;;;;;;;3.44;62.35;101680.34;1740595;80;20288;-73
2021/04/15 03:42:32;;;;;;;;;;;;;;;3.46;62.34;101674.00;1737222;81;20204;-73
2021/04/15 03:45:20;;;;;;;;;;;;;;;3.47;62.23;101675.33;1731539;80;20196;-73
2021/04/15 03:48:08;;;;;;;;;;;;;;;3.45;62.26;101671.85;1734260;81;20282;-73
2021/04/15 03:51:11;;;;;;;;;;;;;;;3.44;62.25;101672.67;1726454;81;20304;-73
2021/04/15 03:54:04;;;;;;;;;;;;;;;3.45;62.28;101673.13;1736390;81;20286;-73
2021/04/15 03:56:57;;;;;;;;;;;;;;;3.45;62.29;101669.70;1738114;81;20292;-73
2021/04/15 03:59:51;;;;;;;;;;;;;;;3.49;62.40;101671.53;1727859;81;20281;-73
2021/04/15 04:02:41;;;;;;;;;;;;;;;3.52;62.31;101674.19;1736987;81;20583;-73
2021/04/15 04:05:28;;;;;;;;;;;;;;;3.50;62.48;101670.30;1746206;81;20269;-73
2021/04/15 04:08:22;;;;;;;;;;;;;;;3.50;62.54;101666.88;1743116;81;20248;-73
2021/04/15 04:11:08;;;;;;;;;;;;;;;3.49;62.50;101666.02;1748883;81;20277;-73
2021/04/15 04:13:55;;;;;;;;;;;;;;;3.47;62.54;101666.78;1741657;81;20254;-73
2021/04/15 04:16:46;;;;;;;;;;;;;;;3.43;62.68;101664.96;1746699;81;20303;-73
2021/04/15 04:19:36;;;;;;;;;;;;;;;3.43;62.83;101656.02;1746046;81;20480;-73
2021/04/15 04:22:33;;;;;;;;;;;;;;;3.43;62.85;101659.84;1747937;80;20479;-73
2021/04/15 04:25:27;;;;;;;;;;;;;;;3.43;62.93;101666.23;1754931;80;20287;-73
2021/04/15 04:28:23;;;;;;;;;;;;;;;3.37;63.10;101662.22;1771910;80;20170;-73
2021/04/15 04:31:21;;;;;;;;;;;;;;;3.32;63.12;101665.50;1728874;81;40405;-74
2021/04/15 04:34:06;;;;;;;;;;;;;;;3.28;63.17;101656.42;1746013;80;20180;-74
2021/04/15 04:36:52;;;;;;;;;;;;;;;3.26;63.50;101672.11;1750860;80;20274;-73
2021/04/15 04:39:37;;;;;;;;;;;;;;;3.24;63.48;101676.31;1753991;80;20486;-73
2021/04/15 04:42:28;;;;;;;;;;;;;;;3.20;63.62;101673.20;1729068;80;20216;-73
2021/04/15 04:45:14;;;;;;;;;;;;;;;3.16;63.72;101670.96;1736250;81;20504;-74
2021/04/15 04:48:05;;;;;;;;;;;;;;;3.10;63.80;101673.77;1755646;80;20552;-74
2021/04/15 04:50:55;;;;;;;;;;;;;;;3.06;63.85;101668.97;1746043;80;20250;-74
2021/04/15 04:53:41;;;;;;;;;;;;;;;3.02;63.92;101668.42;1721850;82;20180;-74
2021/04/15 04:56:32;;;;;;;;;;;;;;;2.99;63.96;101677.27;1731743;80;20288;-74
2021/04/15 04:59:22;;;;;;;;;;;;;;;2.97;64.21;101674.66;1736919;81;20308;-73
2021/04/15 05:02:07;;;;;;;;;;;;;;;2.96;64.29;101670.78;1736262;80;20294;-74
2021/04/15 05:04:55;;;;;;;;;;;;;;;2.94;64.35;101673.69;1754200;80;20327;-74
2021/04/15 05:07:40;;;;;;;;;;;;;;;2.93;64.50;101670.27;1736769;80;20280;-73
2021/04/15 05:10:27;;;;;;;;;;;;;;;2.96;64.51;101672.05;1751953;80;20460;-73
2021/04/15 05:13:15;;;;;;;;;;;;;;;2.98;64.54;101674.25;1737178;80;20266;-73
2021/04/15 05:16:03;;;;;;;;;;;;;;;2.95;64.57;101675.43;1734159;80;20554;-73
2021/04/15 05:18:47;;;;;;;;;;;;;;;2.92;64.57;101679.16;1749143;80;20279;-73
2021/04/15 05:21:32;;;;;;;;;;;;;;;2.89;64.87;101677.37;1741810;80;20185;-73
2021/04/15 05:24:26;;;;;;;;;;;;;;;2.88;64.85;101676.92;1736178;80;20274;-74
2021/04/15 05:27:12;;;;;;;;;;;;;;;2.89;64.97;101675.23;1745980;80;20315;-72
2021/04/15 05:30:01;;;;;;;;;;;;;;;2.91;65.21;101677.42;1737551;80;20187;-72
2021/04/15 05:32:45;;;;;;;;;;;;;;;2.94;65.01;101674.56;1740360;80;20284;-72
2021/04/15 05:35:33;;;;;;;;;;;;;;;2.96;65.24;101675.89;1739895;80;20247;-72
2021/04/15 05:38:18;;;;;;;;;;;;;;;2.94;65.27;101678.39;1733718;80;20248;-72
2021/04/15 05:41:04;;;;;;;;;;;;;;;2.93;65.25;101674.51;1749752;80;20270;-72
2021/04/15 05:43:52;;;;;;;;;;;;;;;2.90;65.31;101672.73;1740581;80;20181;-73
2021/04/15 05:46:42;;;;;;;;;;;;;;;2.89;65.35;101670.98;1745744;80;20172;-73
2021/04/15 05:49:30;;;;;;;;;;;;;;;2.85;65.48;101678.50;1752041;79;20280;-72
2021/04/15 05:52:36;;;;;;;;;;;;;;;2.84;65.93;101680.60;1755098;80;20270;-72
2021/04/15 05:55:24;;;;;;;;;;;;;;;2.80;66.07;101671.10;1750018;80;20285;-73
2021/04/15 05:58:17;;;;;;;;;;;;;;;2.80;66.41;101679.62;1751108;81;20260;-73
2021/04/15 06:01:11;;;;;;;;;;;;;;;2.82;66.40;101672.02;1751670;80;20272;-73
2021/04/15 06:03:58;;;;;;;;;;;;;;;2.81;66.19;101676.26;1747643;80;20535;-73
2021/04/15 06:06:43;;;;;;;;;;;;;;;2.85;66.39;101672.12;1752704;80;20453;-73
2021/04/15 06:09:28;;;;;;;;;;;;;;;2.86;66.47;101670.89;1751800;80;20457;-73
2021/04/15 06:12:16;;;;;;;;;;;;;;;2.88;66.60;101673.49;1751905;80;20296;-73
2021/04/15 06:15:04;;;;;;;;;;;;;;;2.85;66.43;101676.82;1747919;80;20472;-73
2021/04/15 06:17:51;;;;;;;;;;;;;;;2.85;66.73;101664.05;1752108;80;20189;-73
2021/04/15 06:20:38;;;;;;;;;;;;;;;2.91;66.92;101664.25;1748658;80;20280;-72
2021/04/15 06:23:29;;;;;;;;;;;;;;;2.93;66.86;101663.02;1742375;80;20276;-73
2021/04/15 06:26:26;;;;;;;;;;;;;;;2.96;67.04;101659.28;1751496;80;20278;-72
2021/04/15 06:29:14;;;;;;;;;;;;;;;2.93;67.02;101656.22;1751600;80;20161;-72
2021/04/15 06:32:01;;;;;;;;;;;;;;;2.94;67.41;101665.62;1748919;80;20307;-72
2021/04/15 06:34:46;;;;;;;;;;;;;;;2.95;67.31;101658.83;1752426;80;20173;-72
2021/04/15 06:37:46;;;;;;;;;;;;;;;2.97;67.04;101659.73;1752252;80;20276;-72
2021/04/15 06:40:54;;;;;;;;;;;;;;;2.91;67.04;101655.30;1745149;80;20286;-73
2021/04/15 06:43:44;;;;;;;;;;;;;;;2.89;67.01;101654.39;1749858;80;21035;-73
2021/04/15 06:46:42;;;;;;;;;;;;;;;2.89;67.07;101652.24;1751790;80;20269;-73
2021/04/15 06:49:33;;;;;;;;;;;;;;;2.86;67.02;101654.29;1742357;80;21032;-73
2021/04/15 06:52:22;;;;;;;;;;;;;;;2.83;67.21;101640.55;1748988;80;20304;-73
2021/04/15 06:55:44;;;;;;;;;;;;;;;2.84;67.21;101645.70;1724172;80;20296;-72
2021/04/15 06:58:53;;;;;;;;;;;;;;;2.83;67.32;101644.38;1739817;80;20401;-73
2021/04/15 07:02:12;;;;;;;;;;;;;;;2.87;67.53;101643.66;1750804;80;20292;-73
2021/04/15 07:04:59;;;;;;;;;;;;;;;2.87;67.53;101641.11;1663952;84;20315;-73
2021/04/15 07:08:00;;;;;;;;;;;;;;;2.89;67.51;101639.06;1625302;86;20306;-73
2021/04/15 07:11:19;;;;;;;;;;;;;;;2.89;67.52;101642.02;1622911;86;20330;-73
2021/04/15 07:14:40;;;;;;;;;;;;;;;2.88;67.47;101637.73;1615650;86;20352;-73
2021/04/15 07:17:46;;;;;;;;;;;;;;;2.88;67.78;101639.02;1612820;87;20395;-73
2021/04/15 07:20:59;;;;;;;;;;;;;;;2.93;67.87;101637.47;1599729;87;20971;-73
2021/04/15 07:24:02;;;;;;;;;;;;;;;3.02;67.98;101632.66;1644217;85;20290;-73
2021/04/15 07:26:58;;;;;;;;;;;;;;;3.10;67.89;101629.92;1629375;86;20292;-73
2021/04/15 07:29:52;;;;;;;;;;;;;;;3.12;68.00;101630.80;1631477;86;20281;-73
2021/04/15 07:33:06;;;;;;;;;;;;;;;3.21;68.02;101635.33;1623539;86;20180;-73
2021/04/15 07:36:06;;;;;;;;;;;;;;;3.30;68.20;101627.53;1674183;82;20269;-73
2021/04/15 07:39:10;;;;;;;;;;;;;;;3.36;67.99;101620.86;1727051;81;20262;-73
2021/04/15 07:42:15;;;;;;;;;;;;;;;3.43;68.10;101620.22;1735730;81;20290;-73
2021/04/15 07:45:09;;;;;;;;;;;;;;;3.51;67.98;101614.92;1735759;81;20270;-74
2021/04/15 07:48:12;;;;;;;;;;;;;;;3.48;68.20;101613.55;1733064;81;20183;-74
2021/04/15 07:51:18;;;;;;;;;;;;;;;3.58;68.21;101620.66;1733081;80;20256;-73
2021/04/15 07:54:09;;;;;;;;;;;;;;;3.57;68.10;101613.81;1737512;81;20186;-75
2021/04/15 07:57:30;;;;;;;;;;;;;;;3.58;68.26;101613.86;1739710;82;20462;-75
2021/04/15 08:00:51;;;;;;;;;;;;;;;3.62;68.36;101613.53;1746893;80;20471;-73
2021/04/15 08:04:08;;;;;;;;;;;;;;;3.62;68.44;101625.05;1738971;81;20254;-73
2021/04/15 08:07:12;;;;;;;;;;;;;;;3.62;68.26;101618.23;1746392;80;20287;-74
2021/04/15 08:10:29;;;;;;;;;;;;;;;3.60;68.29;101616.46;1704158;82;445531;-73
2021/04/15 08:13:23;;;;;;;;;;;;;;;3.62;68.83;101617.38;1679103;84;20533;-74
2021/04/15 08:16:26;;;;;;;;;;;;;;;3.68;68.57;101608.56;1754620;80;20272;-74
2021/04/15 08:19:26;;;;;;;;;;;;;;;3.71;68.71;101625.27;1742120;80;20551;-74
2021/04/15 08:22:31;;;;;;;;;;;;;;;3.72;68.63;101619.74;1742802;80;20478;-73
2021/04/15 08:25:31;;;;;;;;;;;;;;;3.65;68.57;101616.14;1751794;80;20513;-73
2021/04/15 08:28:41;;;;;;;;;;;;;;;3.61;68.84;101622.03;1752140;80;20185;-74
2021/04/15 08:31:47;;;;;;;;;;;;;;;3.59;68.74;101621.12;1743819;80;20817;-74
2021/04/15 08:35:06;;;;;;;;;;;;;;;3.53;69.01;101621.81;1704637;82;20274;-74
2021/04/15 08:38:17;;;;;;;;;;;;;;;3.54;68.82;101625.23;1707712;82;20196;-74
2021/04/15 08:41:23;;;;;;;;;;;;;;;3.46;68.92;101615.20;1707699;82;20544;-74
2021/04/15 08:44:20;;;;;;;;;;;;;;;3.43;69.00;101616.38;1705086;82;20259;-73
2021/04/15 08:47:23;;;;;;;;;;;;;;;3.36;69.14;101614.06;1747878;80;20257;-74
2021/04/15 08:50:32;;;;;;;;;;;;;;;3.36;69.40;101620.45;1730997;80;20272;-73
2021/04/15 08:53:28;;;;;;;;;;;;;;;3.39;69.52;101619.67;1746183;80;20292;-74
2021/04/15 08:56:16;;;;;;;;;;;;;;;3.34;69.47;101618.26;1752744;80;20260;-74
2021/04/15 08:59:22;;;;;;;;;;;;;;;3.36;69.80;101610.22;1724291;80;20566;-74
2021/04/15 09:02:27;;;;;;;;;;;;;;;3.43;69.79;101607.44;1746795;80;20256;-74
2021/04/15 09:05:40;;;;;;;;;;;;;;;3.46;69.92;101619.90;1751597;80;20193;-73
2021/04/15 09:08:31;;;;;;;;;;;;;;;3.48;69.82;101610.99;1750006;80;20555;-72
2021/04/15 09:11:36;;;;;;;;;;;;;;;3.51;70.11;101614.50;1751290;80;20272;-72
2021/04/15 09:14:44;;;;;;;;;;;;;;;3.53;70.09;101615.41;1747539;80;20252;-72
2021/04/15 09:17:34;;;;;;;;;;;;;;;3.56;70.22;101619.34;1748963;80;20276;-72
2021/04/15 09:20:22;;;;;;;;;;;;;;;3.57;70.08;101610.84;1747560;80;20575;-73
2021/04/15 09:23:44;;;;;;;;;;;;;;;3.51;70.01;101612.36;1755442;80;20189;-74
2021/04/15 09:27:05;;;;;;;;;;;;;;;3.48;70.22;101616.97;1747328;80;20164;-73
2021/04/15 09:29:54;;;;;;;;;;;;;;;3.41;69.92;101613.78;1743253;80;20271;-74
2021/04/15 09:33:00;;;;;;;;;;;;;;;3.35;69.99;101619.99;1747789;80;20873;-74
2021/04/15 09:36:09;;;;;;;;;;;;;;;3.30;70.28;101615.16;1752022;80;20272;-74
2021/04/15 09:39:00;;;;;;;;;;;;;;;3.29;70.45;101614.70;1751417;80;20260;-74
2021/04/15 09:41:48;;;;;;;;;;;;;;;3.23;70.50;101609.41;1749956;80;20204;-74
2021/04/15 09:44:38;;;;;;;;;;;;;;;3.29;70.75;101618.12;1749718;80;20256;-74
2021/04/15 09:47:46;;;;;;;;;;;;;;;3.28;70.62;101608.72;1747975;81;20264;-74
2021/04/15 09:50:42;;;;;;;;;;;;;;;3.22;70.44;101609.81;1754871;80;20249;-74
2021/04/15 09:53:50;;;;;;;;;;;;;;;3.18;70.66;101605.84;1755401;80;20444;-74
2021/04/15 09:57:11;;;;;;;;;;;;;;;3.14;70.78;101597.22;1753853;80;20269;-74
2021/04/15 10:00:20;;;;;;;;;;;;;;;3.13;70.79;101607.39;1754534;80;20533;-74
2021/04/15 10:03:08;;;;;;;;;;;;;;;3.14;70.86;101595.08;1749656;80;20501;-74
2021/04/15 10:06:03;;;;;;;;;;;;;;;3.17;70.97;101594.75;1747887;80;20288;-74
2021/04/15 10:09:00;;;;;;;;;;;;;;;3.20;71.13;101588.45;1720313;80;20275;-74
2021/04/15 10:12:03;;;;;;;;;;;;;;;3.27;71.16;101585.27;1751101;80;20465;-74
2021/04/15 10:15:03;;;;;;;;;;;;;;;3.34;71.04;101591.42;1744468;80;20268;-73
2021/04/15 10:18:07;;;;;;;;;;;;;;;3.45;71.34;101594.28;1749439;80;20340;-74
2021/04/15 10:21:12;;;;;;;;;;;;;;;3.54;71.33;101594.14;1726502;80;20267;-74
2021/04/15 10:24:16;;;;;;;;;;;;;;;3.56;71.31;101596.33;1745507;80;20265;-74
2021/04/15 10:27:21;;;;;;;;;;;;;;;3.54;71.08;101593.27;1749576;80;20496;-74
2021/04/15 10:30:24;;;;;;;;;;;;;;;3.50;71.00;101596.56;1756023;80;20555;-74
2021/04/15 10:33:32;;;;;;;;;;;;;;;3.46;71.07;101591.77;1748603;80;20265;-74
2021/04/15 10:36:38;;;;;;;;;;;;;;;3.41;71.17;101595.89;1752693;80;20245;-74
2021/04/15 10:39:29;;;;;;;;;;;;;;;3.41;71.36;101590.77;1747516;80;20256;-74
2021/04/15 10:42:34;;;;;;;;;;;;;;;3.39;71.29;101594.98;1748998;80;20254;-74
2021/04/15 10:45:52;;;;;;;;;;;;;;;3.38;71.26;101583.02;1748792;80;20527;-74
2021/04/15 10:48:52;;;;;;;;;;;;;;;3.42;71.53;101578.86;1751599;80;20212;-74
2021/04/15 10:51:40;;;;;;;;;;;;;;;3.48;71.67;101569.67;1749554;80;20189;-74
2021/04/15 10:54:40;;;;;;;;;;;;;;;3.56;71.55;101576.28;1738673;80;20294;-73
2021/04/15 10:57:34;;;;;;;;;;;;;;;3.57;71.56;101573.77;1748016;80;20310;-75
2021/04/15 11:00:25;;;;;;;;;;;;;;;3.59;71.62;101573.40;1747636;81;20583;-74
2021/04/15 11:03:12;;;;;;;;;;;;;;;3.64;71.62;101576.91;1737744;81;20495;-74
2021/04/15 11:05:58;;;;;;;;;;;;;;;3.64;71.54;101569.66;1741932;81;20284;-74
2021/04/15 11:08:43;;;;;;;;;;;;;;;3.63;71.73;101570.52;1744129;81;20321;-74
2021/04/15 11:11:27;;;;;;;;;;;;;;;3.62;71.92;101566.22;1730155;80;20284;-74
2021/04/15 11:14:12;;;;;;;;;;;;;;;3.63;71.79;101567.95;1748401;80;20769;-74
2021/04/15 11:16:58;;;;;;;;;;;;;;;3.60;71.91;101568.73;1744454;80;21145;-74
2021/04/15 11:19:43;;;;;;;;;;;;;;;3.58;71.67;101555.45;1750089;80;20292;-73
2021/04/15 11:22:33;;;;;;;;;;;;;;;3.52;71.75;101565.09;1752260;80;20297;-74
2021/04/15 11:25:30;;;;;;;;;;;;;;;3.52;72.16;101562.55;1747473;80;20289;-74
2021/04/15 11:28:24;;;;;;;;;;;;;;;3.55;72.22;101560.07;1704838;82;20298;-75
2021/04/15 11:31:12;;;;;;;;;;;;;;;3.55;72.25;101551.53;1703877;82;20297;-74
2021/04/15 11:34:06;;;;;;;;;;;;;;;3.59;72.37;101554.63;1711820;82;20302;-74
2021/04/15 11:37:00;;;;;;;;;;;;;;;3.59;72.16;101558.47;1708898;82;20659;-74
2021/04/15 11:39:45;;;;;;;;;;;;;;;3.55;72.05;101563.05;1713884;82;20298;-74
2021/04/15 11:42:33;;;;;;;;;;;;;;;3.53;72.22;101551.91;1708485;82;20328;-74
2021/04/15 11:45:31;;;;;;;;;;;;;;;3.59;72.62;101546.95;1704925;82;21199;-76
2021/04/15 11:48:24;;;;;;;;;;;;;;;3.63;72.36;101547.09;1705871;82;20329;-74
2021/04/15 11:51:18;;;;;;;;;;;;;;;3.69;72.46;101549.32;1696639;82;20513;-74
2021/04/15 11:54:03;;;;;;;;;;;;;;;3.69;72.37;101546.77;1683640;84;20483;-74
2021/04/15 11:56:47;;;;;;;;;;;;;;;3.63;72.31;101546.22;1705122;82;20326;-74
2021/04/15 11:59:33;;;;;;;;;;;;;;;3.56;72.26;101545.19;1740512;80;20316;-75
2021/04/15 12:02:30;;;;;;;;;;;;;;;3.56;72.58;101547.73;1746258;80;20300;-75
2021/04/15 12:05:30;;;;;;;;;;;;;;;3.59;72.55;101545.68;1749932;80;20297;-76
2021/04/15 12:08:31;;;;;;;;;;;;;;;3.59;72.46;101540.56;1741551;80;20323;-74
2021/04/15 12:11:24;;;;;;;;;;;;;;;3.61;72.50;101536.36;1732145;81;20399;-75
2021/04/15 12:14:11;;;;;;;;;;;;;;;3.65;72.69;101543.26;1735657;81;20320;-74
2021/04/15 12:17:03;;;;;;;;;;;;;;;3.65;72.52;101526.63;1736446;81;20279;-74
2021/04/15 12:20:04;;;;;;;;;;;;;;;3.65;72.72;101525.36;1731466;81;20256;-74
2021/04/15 12:22:50;;;;;;;;;;;;;;;3.62;72.56;101527.86;1734748;81;20256;-74
2021/04/15 12:25:47;;;;;;;;;;;;;;;3.60;72.71;101535.91;1737884;81;20278;-75
2021/04/15 12:28:44;;;;;;;;;;;;;;;3.61;72.69;101533.80;1732195;81;20276;-75
2021/04/15 12:31:44;;;;;;;;;;;;;;;3.58;72.48;101526.05;1738890;81;20252;-74
2021/04/15 12:34:51;;;;;;;;;;;;;;;3.59;72.52;101533.77;1703142;82;20258;-74
2021/04/15 12:37:51;;;;;;;;;;;;;;;3.56;72.85;101521.30;1739000;81;20558;-74
2021/04/15 12:40:40;;;;;;;;;;;;;;;3.60;72.95;101540.61;1735978;81;20268;-75
2021/04/15 12:43:33;;;;;;;;;;;;;;;3.62;72.82;101540.23;1738685;79;20229;-74
2021/04/15 12:46:23;;;;;;;;;;;;;;;3.60;72.68;101534.63;1740275;81;20294;-74
2021/04/15 12:49:10;;;;;;;;;;;;;;;3.53;72.57;101536.15;1736317;81;20557;-75
2021/04/15 12:51:59;;;;;;;;;;;;;;;3.48;72.83;101543.23;1705290;82;20258;-74
2021/04/15 12:54:44;;;;;;;;;;;;;;;3.44;72.91;101544.84;1737550;81;20543;-74
2021/04/15 12:57:30;;;;;;;;;;;;;;;3.39;72.74;101550.65;1706701;82;20648;-77
2021/04/15 13:00:18;;;;;;;;;;;;;;;3.31;72.79;101547.47;1737007;81;20248;-77
2021/04/15 13:03:08;;;;;;;;;;;;;;;3.27;73.08;101547.33;1727551;81;20282;-76
2021/04/15 13:05:56;;;;;;;;;;;;;;;3.27;73.22;101542.22;1736229;81;20263;-76
2021/04/15 13:08:50;;;;;;;;;;;;;;;3.29;73.30;101538.02;1703315;83;20546;-76
2021/04/15 13:11:35;;;;;;;;;;;;;;;3.32;73.30;101543.22;1743356;81;20272;-77
2021/04/15 13:14:40;;;;;;;;;;;;;;;3.33;73.29;101541.98;1724040;81;20280;-76
2021/04/15 13:17:38;;;;;;;;;;;;;;;3.30;73.15;101534.23;1723387;80;20260;-76
2021/04/15 13:20:29;;;;;;;;;;;;;;;3.28;73.23;101543.55;1737065;80;20266;-76
2021/04/15 13:23:16;;;;;;;;;;;;;;;3.28;73.33;101540.12;1709148;80;2914268;-76
2021/04/15 13:26:04;;;;;;;;;;;;;;;3.32;73.40;101533.86;1745186;80;20175;-76
2021/04/15 13:28:56;;;;;;;;;;;;;;;3.32;73.72;101540.25;1748613;80;20464;-76
2021/04/15 13:31:45;;;;;;;;;;;;;;;3.35;73.89;101546.27;1745497;80;20255;-76
2021/04/15 13:34:33;;;;;;;;;;;;;;;3.37;73.95;101535.68;1747326;80;20304;-76
2021/04/15 13:37:40;;;;;;;;;;;;;;;3.37;74.14;101539.52;1752031;80;20260;-76
2021/04/15 13:40:31;;;;;;;;;;;;;;;3.43;74.25;101533.30;1741137;80;20302;-76
2021/04/15 13:43:37;;;;;;;;;;;;;;;3.45;74.27;101530.38;1685649;83;20195;-76
2021/04/15 13:46:29;;;;;;;;;;;;;;;3.49;74.14;101529.63;1652623;85;20317;-76
2021/04/15 13:49:22;;;;;;;;;;;;;;;3.54;74.42;101535.73;1655726;84;20798;-73
2021/04/15 13:52:28;;;;;;;;;;;;;;;3.59;74.47;101536.31;1652858;85;20327;-73
2021/04/15 13:55:33;;;;;;;;;;;;;;;3.64;74.61;101531.30;1661665;84;20403;-73
2021/04/15 13:58:34;;;;;;;;;;;;;;;3.71;74.62;101527.21;1642440;85;20324;-75
2021/04/15 14:01:31;;;;;;;;;;;;;;;3.75;74.65;101532.45;1651367;85;20323;-73
2021/04/15 14:04:53;;;;;;;;;;;;;;;3.81;74.45;101530.05;1640053;87;20324;-73
2021/04/15 14:07:38;;;;;;;;;;;;;;;3.85;74.47;101531.86;1690911;84;20280;-72
2021/04/15 14:10:37;;;;;;;;;;;;;;;3.90;74.30;101536.69;1679315;84;20498;-73
2021/04/15 14:13:23;;;;;;;;;;;;;;;3.88;74.37;101528.11;1692928;82;20175;-74
2021/04/15 14:16:09;;;;;;;;;;;;;;;3.86;74.39;101534.87;1649849;85;20221;-73
2021/04/15 14:19:09;;;;;;;;;;;;;;;3.88;74.30;101526.83;1694234;84;20493;-73
2021/04/15 14:21:53;;;;;;;;;;;;;;;3.90;74.31;101533.27;1691454;84;20267;-72
2021/04/15 14:24:39;;;;;;;;;;;;;;;3.90;74.50;101537.97;1731723;81;20252;-72
2021/04/15 14:27:25;;;;;;;;;;;;;;;3.94;75.04;101538.91;1754819;81;20249;-72
2021/04/15 14:30:16;;;;;;;;;;;;;;;3.93;75.91;101538.46;1742319;81;20248;-73
2021/04/15 14:33:17;;;;;;;;;;;;;;;3.93;75.87;101536.77;1736487;81;20273;-73
2021/04/15 14:36:04;;;;;;;;;;;;;;;3.94;75.25;101539.78;1743684;80;20187;-72
2021/04/15 14:38:48;;;;;;;;;;;;;;;3.94;74.77;101533.80;1739998;80;20191;-73
2021/04/15 14:41:33;;;;;;;;;;;;;;;3.90;74.56;101532.85;1743288;80;20268;-72
2021/04/15 14:44:20;;;;;;;;;;;;;;;3.84;74.74;101533.97;1746196;80;20261;-73
2021/04/15 14:47:06;;;;;;;;;;;;;;;3.85;74.76;101539.54;1757034;80;20486;-73
2021/04/15 14:50:04;;;;;;;;;;;;;;;3.86;74.84;101534.87;1753779;80;20275;-71
2021/04/15 14:52:48;;;;;;;;;;;;;;;3.85;74.64;101520.35;1747431;80;20288;-71
2021/04/15 14:55:33;;;;;;;;;;;;;;;3.84;74.96;101526.30;1744392;80;20522;-72
2021/04/15 14:58:25;;;;;;;;;;;;;;;3.84;74.96;101531.41;1739679;80;20221;-73
2021/04/15 15:01:35;;;;;;;;;;;;;;;3.89;75.01;101526.41;1739704;80;20320;-73
2021/04/15 15:04:30;;;;;;;;;;;;;;;3.84;74.97;101524.16;1749845;81;20320;-73
2021/04/15 15:07:15;;;;;;;;;;;;;;;3.83;75.12;101524.98;1735924;81;20199;-72